Time;durP1;ratioP1;P1;durP2;ratioP2;P2;SDS_P1;SDS_P2;PMS_P1;PMS_P2;Temp;Humidity;BMP_temperature;BMP_pressure;BME280_temperature;BME280_humidity;BME280_pressure;Samples;Min_cycle;Max_cycle;Signal;HPM_P1;HPM_P2
2022/09/09 00:02:14;;;;;;;6.40;2.30;;;;;;;15.30;77.12;98632.42;102949;1313;24291;-83
2022/09/09 00:06:13;;;;;;;;;;;;;;;;;;;;;
2022/09/09 00:09:44;;;;;;;5.70;2.90;;;;;;;15.33;77.06;98628.77;103438;1297;22625;-80
2022/09/09 00:13:17;;;;;;;;;;;;;;;;;;;;;
2022/09/09 00:16:31;;;;;;;4.60;2.40;;;;;;;15.20;77.11;98633.46;104114;1294;24437;-84
2022/09/09 00:19:50;;;;;;;8.30;3.10;;;;;;;15.19;77.08;98635.54;104357;1294;22582;-81
2022/09/09 00:23:32;;;;;;;6.70;2.80;;;;;;;15.19;77.23;98632.44;103977;1300;25592;-84
2022/09/09 00:27:13;;;;;;;7.10;2.70;;;;;;;15.20;77.23;98629.49;99548;1303;25015;-85
2022/09/09 00:30:25;;;;;;;6.50;3.20;;;;;;;15.25;77.31;98626.13;103892;1299;22586;-85
2022/09/09 00:33:36;;;;;;;6.50;3.40;;;;;;;15.31;77.41;98628.25;103371;1305;24098;-82
2022/09/09 00:36:22;;;;;;;6.80;3.10;;;;;;;15.32;77.36;98628.86;103424;1306;22733;-85
2022/09/09 00:38:59;;;;;;;6.30;2.90;;;;;;;15.29;77.10;98626.67;103704;1300;24388;-81
2022/09/09 00:41:49;;;;;;;6.60;2.60;;;;;;;15.22;77.21;98628.09;103790;1300;25514;-81
2022/09/09 00:44:48;;;;;;;5.80;2.30;;;;;;;15.21;77.21;98625.31;103918;1299;22663;-81
2022/09/09 00:47:41;;;;;;;5.90;2.50;;;;;;;15.20;77.29;98626.24;103961;1299;24307;-84
2022/09/09 00:51:04;;;;;;;13.50;2.50;;;;;;;15.23;77.31;98627.93;103897;1299;25638;-82
2022/09/09 00:54:12;;;;;;;5.30;2.60;;;;;;;15.19;77.14;98629.59;103817;1301;22594;-83
2022/09/09 00:57:46;;;;;;;7.30;3.20;;;;;;;15.14;77.22;98629.75;103921;1300;24284;-82
2022/09/09 01:00:42;;;;;;;11.60;7.40;;;;;;;15.12;77.40;98633.85;104146;1296;24388;-84
2022/09/09 01:03:50;;;;;;;14.20;9.30;;;;;;;15.13;77.31;98629.84;104483;1288;22579;-86
2022/09/09 01:06:36;;;;;;;12.00;8.40;;;;;;;15.12;77.38;98630.45;104845;1289;24489;-83
2022/09/09 01:10:10;;;;;;;12.10;7.10;;;;;;;15.14;77.40;98628.63;105040;1279;22569;-82
2022/09/09 01:13:01;;;;;;;11.10;5.50;;;;;;;15.17;77.59;98633.73;105474;1284;24315;-84
2022/09/09 01:15:42;;;;;;;10.70;3.50;;;;;;;15.17;77.46;98634.81;105111;1286;24073;-84
2022/09/09 01:18:21;;;;;;;6.50;3.20;;;;;;;15.15;77.48;98636.81;105288;1284;23207;-81
2022/09/09 01:21:49;;;;;;;7.90;2.90;;;;;;;15.11;77.37;98644.16;105104;1285;22670;-80
2022/09/09 01:25:05;;;;;;;6.10;2.80;;;;;;;15.08;77.47;98655.02;105425;1284;25327;-81
2022/09/09 01:28:31;;;;;;;5.70;2.60;;;;;;;15.08;77.51;98653.05;105293;1285;22550;-81
2022/09/09 01:31:31;;;;;;;;;;;;;;;;;;;;;
2022/09/09 01:34:25;;;;;;;4.90;2.60;;;;;;;15.07;77.48;98655.50;105271;1284;22704;-81
2022/09/09 01:37:16;;;;;;;5.40;2.40;;;;;;;15.03;77.44;98654.84;105424;1285;22570;-85
2022/09/09 01:39:54;;;;;;;6.50;2.80;;;;;;;14.96;77.29;98661.64;105162;1285;22706;-84
2022/09/09 01:42:21;;;;;;;7.00;2.70;;;;;;;14.90;77.39;98658.44;105117;1284;24442;-81
2022/09/09 01:44:55;;;;;;;8.50;2.40;;;;;;;14.86;77.45;98659.48;105126;1284;22562;-84
2022/09/09 01:47:33;;;;;;;7.10;2.60;;;;;;;14.83;77.47;98657.08;105609;1280;24190;-81
2022/09/09 01:50:27;;;;;;;6.10;2.40;;;;;;;14.83;77.52;98656.23;105728;1279;24122;-81
2022/09/09 01:53:15;;;;;;;6.40;2.60;;;;;;;14.82;77.48;98662.09;105777;1279;25383;-81
2022/09/09 01:56:31;;;;;;;6.10;2.80;;;;;;;14.79;77.54;98661.58;105782;1279;24833;-87
2022/09/09 01:59:51;;;;;;;6.40;2.90;;;;;;;14.77;77.61;98660.41;105747;1279;22810;-83
2022/09/09 02:02:35;;;;;;;6.20;2.40;;;;;;;14.76;77.46;98665.84;105723;1280;22563;-80
2022/09/09 02:05:33;;;;;;;5.80;2.50;;;;;;;14.76;77.48;98668.33;105624;1279;23061;-85
2022/09/09 02:08:29;;;;;;;7.20;2.50;;;;;;;14.74;77.46;98661.88;105729;1279;24269;-81
2022/09/09 02:11:20;;;;;;;5.90;2.40;;;;;;;14.78;77.65;98660.46;105766;1279;22559;-82
2022/09/09 02:14:34;;;;;;;10.00;2.70;;;;;;;14.84;77.90;98664.34;105801;1279;22575;-81
2022/09/09 02:17:23;;;;;;;9.10;2.60;;;;;;;14.89;77.82;98666.02;105728;1278;22578;-82
2022/09/09 02:20:58;;;;;;;5.30;2.40;;;;;;;14.92;77.75;98659.34;105862;1278;22559;-80
2022/09/09 02:23:28;;;;;;;5.00;2.40;;;;;;;14.92;77.72;98666.66;105825;1278;25491;-83
2022/09/09 02:26:06;;;;;;;6.80;3.10;;;;;;;14.92;77.69;98667.91;105747;1278;25379;-82
2022/09/09 02:28:47;;;;;;;6.80;3.40;;;;;;;14.93;77.77;98670.91;105781;1277;22576;-82
2022/09/09 02:31:28;;;;;;;7.90;3.40;;;;;;;14.92;77.62;98672.11;105723;1278;22664;-83
2022/09/09 02:34:21;;;;;;;7.60;3.30;;;;;;;14.87;77.61;98673.41;105860;1278;25286;-82
2022/09/09 02:37:04;;;;;;;6.40;3.20;;;;;;;14.81;77.54;98680.80;105757;1278;23078;-86
2022/09/09 02:39:34;;;;;;;7.20;3.30;;;;;;;14.68;77.22;98679.20;105945;1277;22553;-82
2022/09/09 02:42:15;;;;;;;6.80;3.10;;;;;;;14.58;77.25;98679.61;105768;1277;22550;-80
2022/09/09 02:45:07;;;;;;;5.60;2.40;;;;;;;14.51;77.32;98681.17;105691;1278;24314;-86
2022/09/09 02:48:02;;;;;;;8.10;2.90;;;;;;;14.40;77.21;98681.45;105771;1278;24260;-86
2022/09/09 02:50:49;;;;;;;7.60;3.30;;;;;;;14.33;77.50;98679.58;105766;1278;22592;-83
2022/09/09 02:53:56;;;;;;;;;;;;;;;;;;;;;
2022/09/09 02:56:45;;;;;;;7.30;3.10;;;;;;;14.28;77.63;98681.98;105887;1278;24322;-80
2022/09/09 02:59:41;;;;;;;6.40;3.30;;;;;;;14.23;77.68;98684.04;105715;1278;23192;-80
2022/09/09 03:02:32;;;;;;;5.60;2.90;;;;;;;14.19;77.56;98684.48;105736;1278;24215;-82
2022/09/09 03:05:25;;;;;;;5.90;2.90;;;;;;;14.17;77.72;98687.50;105864;1277;26634;-87
2022/09/09 03:08:11;;;;;;;8.60;2.80;;;;;;;14.16;77.69;98687.04;105809;1278;22636;-84
2022/09/09 03:11:00;;;;;;;5.30;2.70;;;;;;;14.16;77.83;98688.00;105748;1278;22543;-81
2022/09/09 03:14:17;;;;;;;6.20;2.60;;;;;;;14.15;77.79;98687.86;105739;1278;22537;-82
2022/09/09 03:17:00;;;;;;;6.20;2.80;;;;;;;14.12;77.80;98683.20;105764;1278;25302;-81
2022/09/09 03:19:49;;;;;;;7.00;2.70;;;;;;;14.06;77.77;98684.27;105771;1279;25232;-79
2022/09/09 03:22:32;;;;;;;5.20;2.40;;;;;;;14.01;77.82;98687.03;105872;1278;23187;-82
2022/09/09 03:25:06;;;;;;;6.10;2.10;;;;;;;14.00;77.73;98691.58;105753;1277;25228;-80
2022/09/09 03:27:43;;;;;;;5.90;2.30;;;;;;;14.01;77.84;98683.46;105723;1279;22537;-82
2022/09/09 03:30:53;;;;;;;6.70;2.20;;;;;;;14.04;77.88;98682.95;105756;1278;25304;-80
2022/09/09 03:33:32;;;;;;;5.80;2.30;;;;;;;14.08;77.83;98687.41;105738;1278;25549;-80
2022/09/09 03:36:30;;;;;;;8.00;2.50;;;;;;;14.11;77.77;98688.79;105765;1278;22563;-82
2022/09/09 03:39:49;;;;;;;7.80;2.20;;;;;;;14.10;77.77;98689.02;105709;1278;24364;-86
2022/09/09 03:43:43;;;;;;;6.30;2.50;;;;;;;14.05;77.77;98688.27;105835;1277;22659;-84
2022/09/09 03:46:41;;;;;;;;;;;;;;;;;;;;;
2022/09/09 03:49:24;;;;;;;6.40;2.20;;;;;;;14.02;77.81;98689.42;105125;1284;25506;-80
2022/09/09 03:52:21;;;;;;;6.90;2.60;;;;;;;14.04;77.97;98690.84;105057;1284;24300;-80
2022/09/09 03:55:13;;;;;;;7.00;2.70;;;;;;;14.10;78.04;98693.04;105089;1284;22727;-81
2022/09/09 03:59:00;;;;;;;8.20;2.90;;;;;;;14.14;78.02;98695.70;105470;1284;23967;-80
2022/09/09 04:02:05;;;;;;;;;;;;;;;;;;;;;
2022/09/09 04:06:11;;;;;;;8.00;3.50;;;;;;;14.01;77.78;98703.10;104410;1290;25410;-80
2022/09/09 04:09:04;;;;;;;;;;;;;;;;;;;;;
2022/09/09 04:12:22;;;;;;;6.00;2.70;;;;;;;13.90;77.91;98708.13;104420;1291;25483;-83
2022/09/09 04:15:33;;;;;;;8.40;2.70;;;;;;;13.89;77.94;98708.52;104438;1291;22564;-84
2022/09/09 04:19:35;;;;;;;7.10;3.00;;;;;;;13.93;78.08;98709.62;104384;1291;22559;-82
2022/09/09 04:22:48;;;;;;;6.20;3.00;;;;;;;13.94;78.11;98715.20;104412;1291;25323;-86
2022/09/09 04:26:14;;;;;;;;;;;;;;;;;;;;;
2022/09/09 04:29:09;;;;;;;6.70;3.10;;;;;;;13.91;78.09;98707.81;104372;1292;22629;-80
2022/09/09 04:32:42;;;;;;;7.40;3.40;;;;;;;13.91;78.07;98709.91;104203;1294;22540;-81
2022/09/09 04:35:36;;;;;;;10.70;3.20;;;;;;;13.94;77.99;98709.91;104373;1294;22573;-81
2022/09/09 04:38:33;;;;;;;;;;;;;;;;;;;;;
2022/09/09 04:41:58;;;;;;;8.50;3.80;;;;;;;14.05;78.25;98712.40;104516;1287;24261;-80
2022/09/09 04:44:55;;;;;;;;;;;;;;;;;;;;;
2022/09/09 04:48:03;;;;;;;6.60;3.20;;;;;;;14.17;78.29;98715.31;105005;1285;22605;-79
2022/09/09 04:51:24;;;;;;;8.80;3.20;;;;;;;14.23;78.29;98712.20;105077;1285;22905;-84
2022/09/09 04:54:52;;;;;;;;;;;;;;;;;;;;;
2022/09/09 04:58:00;;;;;;;11.70;3.60;;;;;;;14.37;78.25;98711.06;105118;1285;22636;-86
2022/09/09 05:00:47;;;;;;;11.60;4.30;;;;;;;14.44;78.25;98715.27;105519;1285;22722;-81
2022/09/09 05:03:44;;;;;;;8.90;3.70;;;;;;;14.55;78.39;98720.18;104859;1285;25374;-82
2022/09/09 05:07:03;;;;;;;;;;;;;;;;;;;;;
2022/09/09 05:10:17;;;;;;;9.50;3.30;;;;;;;14.82;78.21;98722.64;105854;1275;25207;-81
2022/09/09 05:13:14;;;;;;;8.00;3.80;;;;;;;14.95;78.21;98722.27;105884;1277;25365;-81
2022/09/09 05:16:09;;;;;;;;;;;;;;;;;;;;;
2022/09/09 05:19:18;;;;;;;7.60;4.10;;;;;;;15.18;77.90;98735.33;105766;1277;25319;-80
2022/09/09 05:22:22;;;;;;;12.30;4.40;;;;;;;15.30;77.89;98732.92;105934;1277;23461;-85
2022/09/09 05:25:12;;;;;;;16.50;4.40;;;;;;;15.38;77.94;98733.52;105931;1277;22654;-84
2022/09/09 05:27:54;;;;;;;16.70;4.50;;;;;;;15.49;77.90;98737.67;105716;1277;22573;-80
2022/09/09 05:30:29;;;;;;;21.30;5.00;;;;;;;15.59;77.92;98740.10;105823;1277;25341;-81
2022/09/09 05:33:11;;;;;;;23.90;5.10;;;;;;;15.67;77.88;98738.44;105868;1277;22561;-87
2022/09/09 05:35:45;;;;;;;25.60;4.90;;;;;;;15.71;77.59;98740.05;105773;1277;24204;-86
2022/09/09 05:38:21;;;;;;;22.60;4.70;;;;;;;15.75;77.62;98737.71;105905;1277;22678;-81
2022/09/09 05:40:58;;;;;;;17.20;4.40;;;;;;;15.90;77.93;98736.00;105831;1277;23811;-80
2022/09/09 05:43:27;;;;;;;21.30;4.40;;;;;;;16.02;77.90;98734.81;105869;1277;24354;-81
2022/09/09 05:46:08;;;;;;;13.50;4.20;;;;;;;16.11;77.80;98732.67;105759;1277;25522;-81
2022/09/09 05:48:43;;;;;;;13.90;4.50;;;;;;;16.20;77.80;98734.74;105806;1277;22560;-82
2022/09/09 05:51:30;;;;;;;12.10;4.50;;;;;;;16.30;77.76;98727.50;105732;1277;24236;-82
2022/09/09 05:54:13;;;;;;;11.70;4.10;;;;;;;16.42;77.71;98723.39;105646;1277;23954;-81
2022/09/09 05:56:53;;;;;;;9.00;4.10;;;;;;;16.55;77.71;98719.91;105881;1276;22628;-81
2022/09/09 05:59:36;;;;;;;11.20;3.90;;;;;;;16.75;77.85;98724.17;105838;1277;25452;-81
2022/09/09 06:02:22;;;;;;;10.50;4.50;;;;;;;16.95;77.82;98723.01;105826;1277;22616;-84
2022/09/09 06:04:55;;;;;;;9.90;4.20;;;;;;;17.14;77.84;98729.82;105860;1277;22557;-81
2022/09/09 06:07:30;;;;;;;14.50;4.90;;;;;;;17.37;77.95;98730.83;105843;1277;22813;-85
2022/09/09 06:10:04;;;;;;;11.60;4.50;;;;;;;17.61;77.92;98731.73;105970;1277;25346;-81
2022/09/09 06:12:36;;;;;;;12.20;4.50;;;;;;;17.78;77.60;98729.02;105948;1277;22552;-84
2022/09/09 06:15:07;;;;;;;11.80;4.20;;;;;;;17.86;77.36;98729.25;105805;1277;25537;-80
2022/09/09 06:17:45;;;;;;;11.40;3.50;;;;;;;17.85;77.15;98730.11;105950;1277;24211;-80
2022/09/09 06:20:33;;;;;;;11.10;4.00;;;;;;;17.76;77.02;98727.83;105815;1277;22551;-83
2022/09/09 06:23:09;;;;;;;8.60;3.90;;;;;;;17.66;77.10;98723.08;105826;1276;22539;-81
2022/09/09 06:25:51;;;;;;;14.10;4.50;;;;;;;17.66;77.47;98717.91;105876;1277;25316;-81
2022/09/09 06:28:43;;;;;;;12.40;4.40;;;;;;;17.75;77.52;98716.76;105929;1277;22560;-83
2022/09/09 06:31:45;;;;;;;12.00;4.20;;;;;;;17.84;77.52;98720.15;105930;1277;24341;-82
2022/09/09 06:34:21;;;;;;;10.50;4.20;;;;;;;17.92;77.62;98721.46;105975;1277;22570;-84
2022/09/09 06:36:58;;;;;;;9.40;3.90;;;;;;;18.00;77.58;98723.93;105732;1277;25338;-82
2022/09/09 06:39:39;;;;;;;11.10;3.60;;;;;;;18.00;77.42;98725.72;105731;1277;22646;-82
2022/09/09 06:42:14;;;;;;;11.10;4.00;;;;;;;17.99;77.39;98732.92;105769;1276;22668;-86
2022/09/09 06:45:02;;;;;;;8.10;4.00;;;;;;;17.97;77.38;98737.04;105932;1277;22646;-82
2022/09/09 06:47:45;;;;;;;10.20;4.10;;;;;;;18.04;77.44;98744.39;106194;1276;23247;-81
2022/09/09 06:50:18;;;;;;;11.60;4.00;;;;;;;18.02;77.39;98739.42;105822;1277;22549;-81
2022/09/09 06:52:59;;;;;;;8.80;4.20;;;;;;;17.98;77.42;98737.27;105835;1277;22554;-82
2022/09/09 06:55:44;;;;;;;10.30;4.20;;;;;;;17.97;77.53;98736.66;105906;1277;22574;-84
2022/09/09 06:58:18;;;;;;;11.40;3.80;;;;;;;18.00;77.62;98734.20;105771;1277;22556;-86
2022/09/09 07:01:19;;;;;;;10.30;3.50;;;;;;;18.03;77.35;98731.52;105846;1277;25452;-84
2022/09/09 07:04:10;;;;;;;8.60;3.90;;;;;;;18.24;77.45;98731.11;105895;1277;22542;-85
2022/09/09 07:06:46;;;;;;;10.10;4.40;;;;;;;18.44;77.30;98727.08;105794;1277;22550;-82
2022/09/09 07:09:27;;;;;;;9.60;3.80;;;;;;;18.60;77.30;98727.27;105840;1277;24222;-81
2022/09/09 07:12:07;;;;;;;13.00;5.30;;;;;;;18.72;77.34;98730.70;105872;1277;22851;-86
2022/09/09 07:14:47;;;;;;;9.40;3.80;;;;;;;18.73;77.03;98733.29;105839;1277;25242;-81
2022/09/09 07:17:19;;;;;;;8.20;3.30;;;;;;;18.72;77.03;98734.64;105755;1277;24221;-83
2022/09/09 07:20:05;;;;;;;7.60;2.80;;;;;;;18.81;77.35;98733.61;105864;1277;24287;-81
2022/09/09 07:23:46;;;;;;;7.60;2.70;;;;;;;18.99;77.07;98739.71;105877;1277;25368;-81
2022/09/09 07:26:24;;;;;;;9.60;2.90;;;;;;;19.06;76.95;98741.45;105868;1277;25543;-83
2022/09/09 07:29:30;;;;;;;;;;;;;;;;;;;;;
2022/09/09 07:32:11;;;;;;;7.20;3.10;;;;;;;18.88;76.85;98739.93;106165;1277;22592;-80
2022/09/09 07:35:05;;;;;;;6.00;2.80;;;;;;;18.85;77.00;98743.99;106217;1277;22629;-80
2022/09/09 07:38:06;;;;;;;7.10;2.30;;;;;;;18.89;77.00;98746.11;105904;1277;24310;-81
2022/09/09 07:40:51;;;;;;;7.50;2.60;;;;;;;19.15;77.18;98749.46;106024;1277;22547;-84
2022/09/09 07:44:09;;;;;;;;;;;;;;;;;;;;;
2022/09/09 07:47:27;;;;;;;5.20;2.10;;;;;;;19.62;76.66;98752.70;105973;1277;23929;-80
2022/09/09 07:50:30;;;;;;;6.40;2.50;;;;;;;19.67;76.25;98749.36;105939;1277;24225;-84
2022/09/09 07:53:19;;;;;;;;;;;;;;;;;;;;;
2022/09/09 07:56:32;;;;;;;7.90;2.60;;;;;;;19.75;76.81;98749.86;105928;1277;25662;-80
2022/09/09 07:59:20;;;;;;;7.20;2.70;;;;;;;19.87;76.70;98744.86;105889;1277;22534;-86
2022/09/09 08:02:29;;;;;;;7.20;2.60;;;;;;;19.94;76.58;98744.98;105931;1276;25442;-82
2022/09/09 08:05:35;;;;;;;8.40;2.10;;;;;;;20.02;76.24;98746.06;105892;1277;22737;-84
2022/09/09 08:09:13;;;;;;;;;;;;;;;;;;;;;
2022/09/09 08:12:35;;;;;;;;;;;;;;;;;;;;;
2022/09/09 08:16:49;;;;;;;5.90;2.50;;;;;;;20.19;75.95;98744.61;105569;1282;25301;-81
2022/09/09 08:19:35;;;;;;;;;;;;;;;;;;;;;
2022/09/09 08:23:02;;;;;;;6.50;1.90;;;;;;;20.04;75.19;98759.23;104580;1291;23908;-84
2022/09/09 08:25:58;;;;;;;8.30;1.90;;;;;;;19.90;75.70;98763.45;104692;1290;22646;-81
2022/09/09 08:28:57;;;;;;;5.20;2.00;;;;;;;19.87;75.47;98762.23;104356;1291;22554;-85
2022/09/09 08:32:26;;;;;;;;;;;;;;;;;;;;;
2022/09/09 08:35:28;;;;;;;6.50;2.10;;;;;;;19.99;75.71;98765.77;104642;1291;24430;-82
2022/09/09 08:38:22;;;;;;;6.20;1.80;;;;;;;20.16;75.85;98770.48;104509;1290;25257;-81
2022/09/09 08:41:56;;;;;;;;;;;;;;;;;;;;;
2022/09/09 08:45:35;;;;;;;7.70;1.80;;;;;;;20.44;75.36;98768.38;105489;1284;22569;-86
2022/09/09 08:49:07;;;;;;;6.40;2.10;;;;;;;20.81;75.68;98765.90;105492;1284;22632;-85
2022/09/09 08:52:15;;;;;;;7.30;1.80;;;;;;;21.17;75.40;98765.33;104681;1290;24747;-82
2022/09/09 08:54:55;;;;;;;9.20;1.90;;;;;;;21.45;75.23;98767.75;104807;1290;24342;-83
2022/09/09 08:57:28;;;;;;;5.10;1.80;;;;;;;21.70;75.13;98773.90;105467;1284;25616;-82
2022/09/09 09:00:01;;;;;;;4.90;1.40;;;;;;;21.87;74.43;98773.09;105545;1284;25419;-82
2022/09/09 09:03:08;;;;;;;6.40;1.40;;;;;;;21.96;74.23;98768.85;105406;1284;22885;-83
2022/09/09 09:05:50;;;;;;;6.60;1.40;;;;;;;22.15;74.50;98765.66;105119;1285;22567;-83
2022/09/09 09:08:38;;;;;;;4.60;0.90;;;;;;;22.30;74.26;98764.13;105149;1284;25249;-82
2022/09/09 09:11:14;;;;;;;6.20;1.10;;;;;;;22.53;74.37;98756.79;105440;1284;25578;-82
2022/09/09 09:14:27;;;;;;;4.00;0.90;;;;;;;22.78;74.56;98755.67;105451;1285;25389;-80
2022/09/09 09:17:27;;;;;;;4.70;1.60;;;;;;;23.05;74.01;98760.70;105306;1285;24341;-84
2022/09/09 09:20:11;;;;;;;4.60;1.60;;;;;;;23.27;73.94;98762.77;105219;1285;24291;-83
2022/09/09 09:22:50;;;;;;;5.30;1.80;;;;;;;23.46;73.98;98753.73;105228;1284;24310;-85
2022/09/09 09:25:34;;;;;;;5.90;1.60;;;;;;;23.71;73.91;98747.95;105692;1276;24517;-85
2022/09/09 09:28:32;;;;;;;4.10;1.60;;;;;;;23.79;73.01;98746.48;105926;1277;22554;-84
2022/09/09 09:31:14;;;;;;;5.90;1.70;;;;;;;23.87;72.65;98746.23;105917;1279;22556;-87
2022/09/09 09:33:54;;;;;;;6.00;1.40;;;;;;;23.89;72.76;98751.20;105923;1277;22620;-85
2022/09/09 09:36:42;;;;;;;3.70;1.50;;;;;;;23.90;71.92;98755.85;105964;1277;25388;-81
2022/09/09 09:39:36;;;;;;;5.30;1.80;;;;;;;23.83;71.71;98754.98;105771;1277;25456;-85
2022/09/09 09:42:19;;;;;;;4.60;1.90;;;;;;;23.84;72.27;98752.55;105874;1277;25273;-82
2022/09/09 09:44:54;;;;;;;6.30;2.10;;;;;;;24.12;72.70;98746.45;106026;1277;22574;-86
2022/09/09 09:47:26;;;;;;;5.30;1.60;;;;;;;24.54;72.82;98748.00;105865;1277;23942;-82
2022/09/09 09:50:26;;;;;;;6.00;2.00;;;;;;;24.91;72.49;98753.63;105975;1277;23180;-82
2022/09/09 09:53:06;;;;;;;6.80;2.10;;;;;;;25.06;71.58;98753.83;105767;1277;25417;-82
2022/09/09 09:55:59;;;;;;;7.50;2.20;;;;;;;24.88;70.81;98750.27;105961;1277;25606;-83
2022/09/09 09:58:50;;;;;;;5.40;2.10;;;;;;;24.76;71.77;98748.62;105906;1277;25314;-82
2022/09/09 10:01:33;;;;;;;4.50;1.70;;;;;;;24.86;71.62;98747.49;105989;1277;22592;-88
2022/09/09 10:04:27;;;;;;;4.30;1.50;;;;;;;24.85;71.32;98746.20;105858;1277;25062;-88
2022/09/09 10:07:15;;;;;;;5.90;2.00;;;;;;;24.72;71.05;98749.17;105900;1277;22537;-85
2022/09/09 10:09:57;;;;;;;5.60;1.90;;;;;;;24.76;71.50;98748.61;105842;1277;22556;-82
2022/09/09 10:13:11;;;;;;;8.70;1.80;;;;;;;24.87;71.43;98743.25;105910;1277;22622;-88
2022/09/09 10:16:36;;;;;;;7.00;2.40;;;;;;;25.01;71.36;98739.21;105858;1277;25317;-80
2022/09/09 10:19:31;;;;;;;5.90;1.90;;;;;;;25.00;70.61;98739.13;105815;1277;22535;-80
2022/09/09 10:22:35;;;;;;;5.00;1.40;;;;;;;24.88;69.46;98738.42;105827;1277;24240;-82
2022/09/09 10:25:34;;;;;;;5.20;1.40;;;;;;;24.61;69.52;98739.36;105974;1277;22546;-83
2022/09/09 10:28:39;;;;;;;4.30;1.20;;;;;;;24.60;69.41;98739.48;105821;1277;23044;-84
2022/09/09 10:31:32;;;;;;;3.50;1.20;;;;;;;24.39;68.91;98738.20;106001;1277;22563;-81
2022/09/09 10:34:36;;;;;;;4.60;1.30;;;;;;;24.39;69.70;98736.65;105769;1277;24399;-81
2022/09/09 10:37:23;;;;;;;4.70;1.40;;;;;;;24.33;68.03;98738.42;105988;1276;22567;-88
2022/09/09 10:40:18;;;;;;;4.60;1.40;;;;;;;23.93;68.13;98738.88;105794;1277;22991;-83
2022/09/09 10:42:50;;;;;;;4.70;1.30;;;;;;;23.73;68.63;98747.51;106045;1277;24343;-82
2022/09/09 10:46:02;;;;;;;3.30;1.30;;;;;;;23.64;69.03;98743.94;105921;1277;23177;-83
2022/09/09 10:48:57;;;;;;;7.80;1.40;;;;;;;23.71;69.21;98740.33;105374;1284;22557;-85
2022/09/09 10:51:43;;;;;;;7.00;1.40;;;;;;;23.92;68.97;98737.90;104543;1291;24471;-83
2022/09/09 10:54:54;;;;;;;5.50;1.40;;;;;;;23.92;68.00;98738.02;104498;1291;22963;-82
2022/09/09 10:57:46;;;;;;;3.00;1.10;;;;;;;23.78;67.69;98743.80;104323;1291;24433;-82
2022/09/09 11:00:39;;;;;;;4.60;1.20;;;;;;;23.71;68.23;98744.02;104556;1291;25337;-82
2022/09/09 11:03:12;;;;;;;5.80;1.10;;;;;;;23.68;68.16;98745.39;104300;1292;24335;-82
2022/09/09 11:06:25;;;;;;;2.00;0.80;;;;;;;23.82;67.67;98746.89;104265;1291;25468;-83
2022/09/09 11:08:59;;;;;;;4.50;0.80;;;;;;;23.79;66.62;98748.38;104104;1300;25298;-82
2022/09/09 11:11:37;;;;;;;4.00;0.80;;;;;;;23.68;66.32;98746.31;103587;1300;24345;-82
2022/09/09 11:14:53;;;;;;;3.10;0.80;;;;;;;23.62;66.61;98748.66;103731;1300;25452;-81
2022/09/09 11:17:30;;;;;;;3.30;0.90;;;;;;;23.58;66.37;98741.38;104055;1300;22566;-81
2022/09/09 11:20:16;;;;;;;4.60;1.20;;;;;;;23.30;66.32;98740.02;104058;1300;22564;-83
2022/09/09 11:23:13;;;;;;;3.90;1.10;;;;;;;23.18;67.01;98739.73;104041;1300;23047;-84
2022/09/09 11:26:06;;;;;;;5.70;1.20;;;;;;;23.10;66.74;98737.16;103972;1294;24449;-81
2022/09/09 11:29:27;;;;;;;4.20;0.90;;;;;;;23.15;66.82;98742.68;104510;1285;23061;-81
2022/09/09 11:32:32;;;;;;;5.20;1.20;;;;;;;23.58;67.38;98744.05;105061;1285;22560;-81
2022/09/09 11:36:02;;;;;;;;;;;;;;;;;;;;;
2022/09/09 11:38:51;;;;;;;3.80;1.30;;;;;;;24.17;66.30;98741.17;105005;1285;22733;-81
2022/09/09 11:41:21;;;;;;;3.80;1.30;;;;;;;24.35;66.64;98738.30;104925;1285;24237;-83
2022/09/09 11:44:20;;;;;;;4.40;1.30;;;;;;;24.57;66.44;98740.16;105408;1277;22548;-84
2022/09/09 11:46:51;;;;;;;7.00;1.40;;;;;;;24.80;66.46;98733.33;105884;1277;25235;-83
2022/09/09 11:49:49;;;;;;;5.50;1.50;;;;;;;24.98;66.21;98728.96;105977;1276;22577;-82
2022/09/09 11:52:40;;;;;;;3.80;1.30;;;;;;;25.19;65.93;98729.73;105773;1277;23928;-82
2022/09/09 11:55:36;;;;;;;5.30;1.40;;;;;;;25.29;65.94;98729.46;105671;1280;24415;-83
2022/09/09 11:58:40;;;;;;;5.30;1.20;;;;;;;25.27;65.61;98728.48;105668;1277;25349;-82
2022/09/09 12:01:45;;;;;;;6.10;1.50;;;;;;;25.14;65.74;98723.60;105815;1277;25216;-82
2022/09/09 12:05:00;;;;;;;6.10;1.60;;;;;;;24.95;65.62;98726.48;105950;1276;24413;-86
2022/09/09 12:07:47;;;;;;;5.80;1.60;;;;;;;24.79;65.52;98722.75;105657;1277;25302;-82
2022/09/09 12:11:05;;;;;;;;;;;;;;;;;;;;;
2022/09/09 12:13:53;;;;;;;6.50;1.50;;;;;;;24.90;65.73;98730.15;105450;1284;22553;-82
2022/09/09 12:16:33;;;;;;;4.10;1.20;;;;;;;25.25;65.55;98730.56;105050;1285;22553;-84
2022/09/09 12:19:24;;;;;;;5.20;1.30;;;;;;;25.48;65.44;98722.11;105047;1285;26529;-82
2022/09/09 12:22:23;;;;;;;5.00;1.50;;;;;;;25.58;65.23;98715.42;105102;1285;24550;-84
2022/09/09 12:25:04;;;;;;;4.80;1.40;;;;;;;25.63;65.03;98720.54;103718;1284;1630742;-82
2022/09/09 12:27:41;;;;;;;5.90;1.70;;;;;;;25.61;64.27;98720.85;105081;1284;24224;-83
2022/09/09 12:30:19;;;;;;;4.00;1.40;;;;;;;25.39;64.50;98724.23;104936;1285;24352;-82
2022/09/09 12:33:01;;;;;;;6.40;1.60;;;;;;;25.19;64.70;98730.95;105137;1284;22556;-86
2022/09/09 12:35:32;;;;;;;6.10;1.50;;;;;;;25.11;64.76;98725.23;104930;1284;22631;-84
2022/09/09 12:38:02;;;;;;;4.40;1.40;;;;;;;25.07;64.55;98723.81;105173;1285;22542;-81
2022/09/09 12:40:37;;;;;;;4.80;1.60;;;;;;;24.95;64.40;98718.76;105186;1284;23957;-83
2022/09/09 12:43:26;;;;;;;4.90;1.70;;;;;;;24.79;64.56;98716.32;105070;1286;22542;-82
2022/09/09 12:46:16;;;;;;;4.90;1.60;;;;;;;24.89;64.72;98714.93;105388;1284;25256;-82
2022/09/09 12:48:45;;;;;;;4.20;1.60;;;;;;;25.06;64.52;98716.08;105431;1284;25293;-83
2022/09/09 12:51:43;;;;;;;5.00;1.70;;;;;;;25.07;64.28;98710.49;105634;1279;22715;-83
2022/09/09 12:54:17;;;;;;;5.30;1.50;;;;;;;25.20;63.92;98707.69;105801;1279;22554;-83
2022/09/09 12:56:55;;;;;;;6.40;1.20;;;;;;;25.28;63.90;98711.18;105824;1279;25310;-83
2022/09/09 12:59:36;;;;;;;6.10;1.10;;;;;;;25.35;63.80;98707.50;105702;1279;24363;-81
2022/09/09 13:02:18;;;;;;;4.40;1.30;;;;;;;25.37;63.60;98700.55;105720;1279;22559;-86
2022/09/09 13:04:53;;;;;;;4.30;1.40;;;;;;;25.42;63.64;98693.77;105592;1279;23098;-82
2022/09/09 13:07:38;;;;;;;4.30;1.30;;;;;;;25.43;63.50;98694.02;105624;1279;22561;-82
2022/09/09 13:10:21;;;;;;;4.20;1.40;;;;;;;25.45;63.41;98700.28;105502;1279;24184;-82
2022/09/09 13:12:57;;;;;;;3.70;1.10;;;;;;;25.50;63.46;98706.70;105709;1279;22563;-83
2022/09/09 13:15:35;;;;;;;4.70;1.20;;;;;;;25.55;63.25;98703.40;105630;1277;24366;-83
2022/09/09 13:18:17;;;;;;;3.70;1.00;;;;;;;25.58;63.23;98696.41;105817;1277;22791;-82
2022/09/09 13:20:59;;;;;;;3.30;1.20;;;;;;;25.59;62.78;98692.87;105687;1277;23510;-82
2022/09/09 13:23:37;;;;;;;5.10;1.20;;;;;;;25.59;62.93;98692.29;105719;1277;24085;-82
2022/09/09 13:26:43;;;;;;;7.80;1.10;;;;;;;25.58;62.57;98692.92;105727;1277;22555;-81
2022/09/09 13:29:18;;;;;;;4.40;1.30;;;;;;;25.51;62.56;98690.93;105746;1280;24277;-82
2022/09/09 13:31:52;;;;;;;3.30;1.10;;;;;;;25.45;62.38;98684.04;105794;1281;22725;-82
2022/09/09 13:34:32;;;;;;;4.10;1.20;;;;;;;25.22;61.40;98681.67;105853;1277;25288;-82
2022/09/09 13:37:05;;;;;;;3.90;1.10;;;;;;;25.05;62.32;98675.93;105720;1277;22547;-85
2022/09/09 13:39:36;;;;;;;11.80;1.40;;;;;;;24.97;61.67;98673.98;105891;1276;22697;-84
2022/09/09 13:42:29;;;;;;;4.20;1.30;;;;;;;24.91;62.06;98674.30;106005;1277;25202;-82
2022/09/09 13:45:04;;;;;;;3.90;1.00;;;;;;;24.92;62.21;98671.55;105970;1277;24267;-82
2022/09/09 13:47:36;;;;;;;4.00;1.40;;;;;;;25.00;62.26;98668.77;105963;1277;25354;-87
2022/09/09 13:50:29;;;;;;;4.20;1.30;;;;;;;25.03;62.12;98664.52;105973;1277;22596;-84
2022/09/09 13:52:58;;;;;;;4.70;1.20;;;;;;;25.04;62.03;98657.52;106018;1277;24334;-83
2022/09/09 13:55:32;;;;;;;5.40;1.40;;;;;;;25.01;62.08;98662.34;105890;1277;25225;-83
2022/09/09 13:58:19;;;;;;;6.90;1.50;;;;;;;24.93;62.22;98666.69;105898;1277;25555;-84
2022/09/09 14:00:52;;;;;;;4.50;1.20;;;;;;;24.80;61.96;98670.90;105932;1276;24358;-82
2022/09/09 14:03:20;;;;;;;4.40;1.10;;;;;;;24.67;61.82;98675.44;105780;1277;23908;-84
2022/09/09 14:05:52;;;;;;;4.70;1.20;;;;;;;24.53;61.89;98675.91;105776;1280;22555;-84